Latest Weather Observations for Winton

IDQ60801

Issued at 9:02 pm EST Tuesday 3 March 2015 (issued every 30 minutes, with the page automatically refreshed every 10 minutes)

About weather observations | Map of weather stations | Latest weather observations for QLD | Other Formats
Station Details ID: 037039 Name: WINTON AIRPORT Lat: -22.36 Lon: 143.08 Height: 192.2 m
Data from the previous 72 hours. | See also: Recent months at Winton
Date/Time
EST
Temp
°C
App
Temp
°C
Dew
Point
Rel
Hum
%
Delta-T
°C
Wind Press
QNH
hPa
Press
MSL
hPa
Rain
since 9 am
mm
Dir
 
Spd
km/h
Gust
km/h
Spd
kts
Gust
kts
03/09:00pm 34.3 33.3 14.7 30 12.2 NE 13 17 7 9 1010.2 1009.0 0.0
03/08:30pm 35.0 34.1 14.8 29 12.6 ENE 13 17 7 9 1009.9 1008.7 0.0
03/08:00pm 35.8 35.1 15.5 29 12.9 ENE 13 17 7 9 1009.5 1008.3 0.0
03/07:30pm 36.4 35.4 15.5 29 13.3 ENE 15 20 8 11 1008.9 1007.6 0.0
03/07:00pm 36.8 35.7 15.3 28 13.6 ENE 15 20 8 11 1008.5 1007.2 0.0
03/06:30pm 37.7 34.7 14.9 26 14.4 ENE 24 33 13 18 1008.2 1006.9 0.0
03/06:00pm 38.5 37.5 15.6 26 14.7 ESE 15 28 8 15 1007.8 1006.5 0.0
03/05:30pm 38.5 36.5 15.0 25 14.9 ENE 19 28 10 15 1007.6 1006.3 0.0
03/05:00pm 38.5 38.1 16.2 27 14.4 E 13 24 7 13 1007.7 1006.4 0.0
03/04:30pm 38.0 37.8 15.7 26 14.3 ENE 11 22 6 12 1007.8 1006.5 0.0
03/04:00pm 39.2 39.0 16.8 27 14.6 E 13 26 7 14 1008.0 1006.7 0.0
03/03:30pm 37.7 37.4 15.5 27 14.1 ENE 11 19 6 10 1008.2 1006.9 0.0
03/03:00pm 37.8 37.4 16.1 27 14.0 NE 13 30 7 16 1008.6 1007.3 0.0
03/02:30pm 37.6 37.1 16.0 28 13.9 NNE 13 22 7 12 1009.1 1007.9 0.0
03/02:00pm 37.7 36.5 16.1 28 13.9 NNE 17 30 9 16 1009.6 1008.4 0.0
03/01:30pm 37.7 36.3 16.6 28 13.6 NE 19 32 10 17 1010.0 1008.8 0.0
03/01:00pm 36.7 36.2 16.8 30 12.9 NNE 15 28 8 15 1010.8 1009.5 0.0
03/12:30pm 36.4 35.0 17.0 31 12.6 N 20 37 11 20 1011.6 1010.3 0.0
03/12:00pm 36.3 35.3 17.9 33 12.1 NNE 20 30 11 16 1012.0 1010.7 0.0
03/11:30am 34.5 32.3 16.8 34 11.4 NNE 24 32 13 17 1012.5 1011.2 0.0
03/11:00am 34.3 32.2 17.1 36 11.1 NNE 24 35 13 19 1012.7 1011.4 0.0
03/10:30am 34.6 32.4 17.8 37 10.9 N 26 39 14 21 1012.9 1011.6 0.0
03/10:00am 32.2 30.0 18.8 45 8.8 N 28 35 15 19 1012.9 1011.6 0.0
03/09:30am 32.8 31.6 20.0 47 8.5 N 26 33 14 18 1013.0 1011.7 0.0
03/09:00am 31.3 31.1 20.6 53 7.2 NNE 22 32 12 17 1012.8 1011.5 0.0
03/08:30am 30.7 30.3 20.9 56 6.6 N 24 32 13 17 1012.6 1011.3 0.0
03/08:00am 29.9 30.2 20.7 57 6.2 N 20 28 11 15 1012.1 1010.8 0.0
03/07:30am 29.1 29.4 20.8 61 5.5 N 20 28 11 15 1011.7 1010.4 0.0
03/07:00am 27.5 30.4 21.8 71 3.8 NNE 9 13 5 7 1011.1 1009.8 0.0
03/06:30am 27.0 30.0 22.0 74 3.4 NNE 9 13 5 7 1010.4 1009.2 0.0
03/06:00am 27.1 28.7 22.1 74 3.4 NNE 17 22 9 12 1009.9 1008.7 0.0
03/05:30am 27.3 28.4 22.0 73 3.6 NNE 19 26 10 14 1009.4 1008.2 0.0
03/05:00am 27.5 28.6 22.0 72 3.7 NNE 19 26 10 14 1008.9 1007.6 0.0
03/04:30am 27.6 28.3 21.6 70 4.0 NNE 20 24 11 13 1008.5 1007.2 0.0
03/04:00am 28.1 29.4 21.6 68 4.4 NNE 17 20 9 11 1008.0 1006.7 0.0
03/03:30am 28.0 29.4 21.8 69 4.2 NNE 17 20 9 11 1007.8 1006.5 0.0
03/03:00am 28.5 30.3 21.8 67 4.5 N 15 19 8 10 1007.8 1006.5 0.0
03/02:30am 29.3 31.1 21.8 64 5.1 N 15 20 8 11 1007.6 1006.3 0.0
03/02:00am 28.8 31.3 21.8 66 4.7 NNE 11 24 6 13 1007.6 1006.3 0.0
03/01:30am 29.1 31.5 21.6 64 5.1 NNE 11 15 6 8 1007.1 1005.8 0.0
03/01:00am 29.5 32.0 19.8 56 6.4 NE 6 9 3 5 1007.1 1005.8 0.0
03/12:30am 30.5 32.4 18.9 50 7.6 E 7 7 4 4 1006.9 1005.6 0.0
03/12:00am 31.3 34.7 19.3 49 7.9 CALM 0 0 0 0 1007.0 1005.7 0.0
 
Date/Time
EST
Temp
°C
App
Temp
°C
Dew
Point
Rel
Hum
%
Delta-T
°C
Wind Press
QNH
hPa
Press
MSL
hPa
Rain
since 9 am
mm
Dir
 
Spd
km/h
Gust
km/h
Spd
kts
Gust
kts
02/11:30pm 31.5 33.7 19.5 49 7.9 NW 7 9 4 5 1007.2 1005.9 0.0
02/11:00pm 31.5 32.7 19.8 49 7.8 NNW 13 20 7 11 1007.3 1006.0 0.0
02/10:30pm 31.0 29.8 20.9 55 6.8 NNW 28 37 15 20 1007.4 1006.1 0.0
02/10:00pm 30.7 29.1 21.5 58 6.2 N 32 54 17 29 1007.8 1006.5 0.0
02/09:54pm 31.0 29.1 20.9 55 6.8 NNE 32 54 17 29 1007.9 1006.6 0.0
02/09:51pm 31.9 31.0 21.4 53 7.1 NE 28 46 15 25 1008.0 1006.7 0.0
02/09:45pm 32.5 32.8 20.7 49 7.9 NE 20 41 11 22 1008.1 1006.8 0.0
02/09:30pm 33.7 34.6 20.1 44 9.1 N 15 19 8 10 1007.4 1006.1 0.0
02/09:00pm 34.0 34.7 20.4 45 9.2 NNW 17 22 9 12 1006.9 1005.6 0.0
02/08:30pm 33.8 34.0 20.6 46 8.9 N 20 28 11 15 1006.3 1005.0 0.0
02/08:00pm 33.5 32.4 20.3 46 8.9 N 26 33 14 18 1005.7 1004.4 0.0
02/07:30pm 33.8 31.9 20.9 46 8.7 N 32 39 17 21 1005.5 1004.2 0.0
02/07:00pm 35.5 34.0 20.2 40 10.3 N 28 35 15 19 1004.9 1003.7 0.0
02/06:30pm 36.7 34.0 19.2 36 11.7 N 32 43 17 23 1004.6 1003.4 0.0
02/06:24pm 36.6 34.4 18.6 34 11.9 N 28 43 15 23 1004.5 1003.3 0.0
02/06:00pm 40.3 41.1 15.8 23 15.8 WSW 6 13 3 7 1004.1 1002.8 0.0
02/05:30pm 40.8 42.1 16.2 23 16.0 SSW 4 7 2 4 1003.7 1002.4 0.0
02/05:00pm 41.2 42.3 16.6 24 16.1 SW 6 11 3 6 1003.8 1002.5 0.0
02/04:30pm 40.9 42.8 17.6 25 15.4 W 4 13 2 7 1003.8 1002.5 0.0
02/04:00pm 40.2 40.9 17.0 25 15.2 N 9 17 5 9 1003.9 1002.6 0.0
02/03:30pm 40.9 41.1 17.6 25 15.4 NNW 13 20 7 11 1004.2 1002.9 0.0
02/03:00pm 40.6 42.6 19.1 28 14.5 NW 7 15 4 8 1004.4 1003.2 0.0
02/02:30pm 40.5 40.6 18.4 27 14.7 NNW 15 26 8 14 1004.8 1003.6 0.0
02/02:00pm 40.4 41.8 19.5 30 14.2 N 11 28 6 15 1005.2 1003.9 0.0
02/01:30pm 39.1 40.8 19.4 31 13.3 NW 9 22 5 12 1005.8 1004.5 0.0
02/01:00pm 38.4 39.7 20.2 34 12.4 WNW 13 26 7 14 1006.3 1005.0 0.0
02/12:30pm 38.3 39.5 20.6 35 12.1 NW 15 32 8 17 1006.8 1005.5 0.0
02/12:00pm 37.2 37.9 20.5 37 11.4 NW 17 28 9 15 1007.4 1006.1 0.0
02/11:30am 36.3 38.0 21.7 42 10.0 NW 15 26 8 14 1007.7 1006.4 0.0
02/11:00am 35.2 35.6 20.7 42 9.8 NW 19 30 10 16 1008.3 1007.0 0.0
02/10:30am 34.2 34.6 20.6 45 9.2 NW 19 32 10 17 1008.5 1007.2 0.0
02/10:00am 33.9 34.7 21.3 47 8.6 NW 19 28 10 15 1008.8 1007.5 0.0
02/09:30am 32.9 33.5 21.4 50 7.8 NW 20 28 11 15 1008.7 1007.4 0.0
02/09:00am 31.6 31.7 21.2 54 7.0 NW 22 32 12 17 1008.6 1007.3 0.0
02/08:30am 29.9 30.5 21.0 59 6.0 NNW 19 30 10 16 1008.7 1007.4 0.0
02/08:00am 28.8 30.3 20.5 61 5.5 N 13 17 7 9 1008.5 1007.2 0.0
02/07:30am 28.0 30.5 21.1 66 4.6 NNW 9 13 5 7 1008.2 1006.9 0.0
02/07:00am 27.0 29.5 21.1 70 3.9 NW 9 13 5 7 1007.7 1006.4 0.0
02/06:30am 26.5 28.5 20.8 71 3.8 NW 11 15 6 8 1007.1 1005.8 0.0
02/06:00am 26.6 28.3 20.9 71 3.8 NW 13 17 7 9 1006.7 1005.4 0.0
02/05:30am 26.8 27.8 21.1 71 3.8 NW 17 24 9 13 1006.2 1004.9 0.0
02/05:00am 27.1 28.2 21.2 70 4.0 NNW 17 20 9 11 1005.8 1004.5 0.0
02/04:30am 27.1 28.6 21.2 70 3.9 NNW 15 24 8 13 1005.7 1004.4 0.0
02/04:00am 27.2 27.8 21.0 69 4.1 NW 19 24 10 13 1005.7 1004.4 0.0
02/03:30am 27.5 28.1 21.1 68 4.3 NNW 19 24 10 13 1005.8 1004.5 0.0
02/03:00am 27.5 28.1 21.1 68 4.3 N 19 22 10 12 1005.5 1004.2 0.0
02/02:30am 27.7 29.1 21.0 67 4.5 NNW 15 19 8 10 1005.8 1004.5 0.0
02/02:00am 27.8 29.5 20.9 66 4.6 N 13 17 7 9 1006.0 1004.7 0.0
02/01:30am 28.1 29.4 20.9 65 4.8 NNW 15 19 8 10 1006.4 1005.1 0.0
02/01:00am 28.3 29.9 20.8 63 5.0 N 13 19 7 10 1006.8 1005.5 0.0
02/12:30am 28.6 30.5 20.6 62 5.3 NNE 11 15 6 8 1007.0 1005.7 0.0
02/12:00am 29.4 30.4 21.1 61 5.6 NNE 17 20 9 11 1006.9 1005.6 0.0
 
Date/Time
EST
Temp
°C
App
Temp
°C
Dew
Point
Rel
Hum
%
Delta-T
°C
Wind Press
QNH
hPa
Press
MSL
hPa
Rain
since 9 am
mm
Dir
 
Spd
km/h
Gust
km/h
Spd
kts
Gust
kts
01/11:30pm 29.5 29.5 20.9 60 5.8 NW 22 30 12 16 1006.2 1004.9 0.0
01/11:00pm 29.7 28.9 20.8 58 6.0 NNW 26 35 14 19 1006.5 1005.2 0.0
01/10:30pm 30.1 28.4 20.6 56 6.3 NNW 30 39 16 21 1006.5 1005.2 0.0
01/10:00pm 30.8 27.8 20.7 55 6.8 NNW 37 46 20 25 1006.5 1005.2 0.0
01/09:51pm 31.3 29.8 20.3 52 7.3 NNW 28 46 15 25 1006.5 1005.2 0.0
01/09:30pm 32.3 29.7 19.9 48 8.3 NNW 33 50 18 27 1005.9 1004.6 0.0
01/09:00pm 33.7 31.8 20.1 44 9.1 NNW 30 44 16 24 1005.2 1003.9 0.0
01/08:30pm 36.0 34.3 19.0 36 11.3 NW 26 33 14 18 1004.3 1003.0 0.0
01/08:00pm 36.8 37.5 17.9 33 12.4 NW 11 20 6 11 1004.0 1002.7 0.0
01/07:30pm 37.7 36.9 10.9 20 16.0 SW 6 7 3 4 1003.2 1001.9 0.0
01/07:00pm 39.4 38.5 11.5 19 17.0 SW 7 9 4 5 1002.8 1001.5 0.0
01/06:30pm 40.7 39.5 11.7 18 17.7 SSW 9 13 5 7 1002.5 1001.2 0.0
01/06:00pm 41.1 41.1 13.7 20 17.3 SSW 6 13 3 7 1002.1 1000.8 0.0
01/05:30pm 40.9 39.8 14.3 21 16.8 S 13 19 7 10 1002.0 1000.7 0.0
01/05:00pm 40.8 40.4 14.2 21 16.9 SW 9 20 5 11 1001.8 1000.5 0.0
01/04:30pm 41.0 39.8 15.1 22 16.6 SW 15 26 8 14 1002.1 1000.8 0.0
01/04:00pm 41.0 40.3 14.3 20 17.0 SW 11 19 6 10 1002.3 1001.0 0.0
01/03:30pm 41.4 39.7 14.7 21 17.0 W 17 30 9 16 1002.7 1001.4 0.0
01/03:00pm 40.5 38.8 14.6 21 16.5 W 17 30 9 16 1003.1 1001.8 0.0
01/02:30pm 41.7 40.5 17.6 24 16.0 WNW 20 37 11 20 1003.4 1002.1 0.0
01/02:00pm 40.9 38.2 15.7 23 16.3 WSW 24 32 13 17 1003.8 1002.5 0.0
01/01:30pm 40.6 38.9 17.3 25 15.3 W 22 37 12 20 1004.3 1003.0 0.0
01/01:00pm 40.4 39.3 19.5 30 14.2 WNW 24 41 13 22 1004.7 1003.5 0.0
01/12:30pm 38.9 36.7 18.7 30 13.5 W 28 41 15 22 1005.4 1004.1 0.0
01/12:00pm 39.2 37.8 20.4 33 12.8 W 28 43 15 23 1005.7 1004.4 0.0
01/11:42am 38.7 38.0 21.8 37 11.7 WNW 28 50 15 27 1006.0 1004.7 0.0
01/11:30am 37.9 36.1 21.1 37 11.5 WNW 32 44 17 24 1006.2 1004.9 0.0
01/11:00am 37.1 35.3 21.6 40 10.7 WNW 33 48 18 26 1006.5 1005.2 0.0
01/10:30am 36.4 34.6 22.2 44 9.8 WNW 35 44 19 24 1006.7 1005.4 0.0
01/10:00am 35.4 34.2 22.7 47 8.8 WNW 33 43 18 23 1006.9 1005.6 0.0
01/09:30am 34.0 32.7 22.4 50 8.0 WNW 33 46 18 25 1007.1 1005.7 0.0
01/09:00am 32.9 31.8 22.4 54 7.2 NW 32 43 17 23 1007.0 1005.6 0.0
01/08:30am 31.5 30.3 22.2 57 6.4 NW 32 39 17 21 1006.7 1005.3 0.0
01/08:00am 30.6 30.3 22.5 62 5.6 NW 28 37 15 20 1006.6 1005.2 0.0
01/07:30am 30.1 30.5 22.5 63 5.2 NW 24 35 13 19 1006.4 1005.0 0.0
01/07:00am 29.4 30.2 22.4 66 4.8 NW 22 30 12 16 1006.0 1004.5 0.0
01/06:30am 28.6 28.8 21.4 65 4.8 NW 22 28 12 15 1005.5 1004.0 0.0
01/06:00am 28.6 29.0 20.6 62 5.3 NNW 19 26 10 14 1005.2 1003.7 0.0
01/05:30am 28.6 28.9 19.5 58 6.0 N 17 22 9 12 1004.9 1003.5 0.0
01/05:00am 28.6 28.9 18.7 55 6.4 N 15 19 8 10 1004.6 1003.2 0.0
01/04:30am 29.3 29.5 19.3 55 6.5 N 17 24 9 13 1004.1 1002.7 0.0
01/04:00am 29.1 28.3 18.5 52 6.9 NNE 20 28 11 15 1003.8 1002.4 0.0
01/03:30am 30.4 29.4 19.7 52 7.1 NW 24 32 13 17 1003.1 1001.7 0.0
01/03:00am 30.6 29.0 19.3 51 7.5 NW 26 35 14 19 1002.8 1001.4 0.0
01/02:30am 31.1 29.2 19.4 49 7.7 NW 28 37 15 20 1002.9 1001.5 0.0
01/02:00am 31.0 29.6 18.7 48 8.1 NW 24 33 13 18 1003.0 1001.6 0.0
01/01:30am 31.3 29.8 18.6 46 8.3 NW 24 28 13 15 1003.5 1002.1 0.0
01/01:00am 31.5 30.3 18.5 46 8.5 WNW 22 28 12 15 1003.9 1002.5 0.0
01/12:30am 32.3 31.0 18.1 42 9.2 NW 22 26 12 14 1004.0 1002.6 0.0
01/12:00am 32.2 31.0 16.1 38 10.2 NW 17 22 9 12 1004.3 1002.9 0.0
 
Date/Time
EST
Temp
°C
App
Temp
°C
Dew
Point
Rel
Hum
%
Delta-T
°C
Wind Press
QNH
hPa
Press
MSL
hPa
Rain
since 9 am
mm
Dir
 
Spd
km/h
Gust
km/h
Spd
kts
Gust
kts
28/11:30pm 32.0 29.7 11.7 28 12.0 NNW 15 19 8 10 1004.4 1003.0 0.0
28/11:00pm 30.2 28.0 8.0 25 12.3 NNW 9 11 5 6 1004.3 1002.9 0.0
28/10:30pm 31.6 29.8 8.0 23 13.1 NNW 7 7 4 4 1004.3 1002.9 0.0
28/10:00pm 32.4 30.8 8.0 22 13.7 N 6 7 3 4 1004.2 1002.8 0.0
28/09:30pm 33.7 31.4 7.6 20 14.6 NW 9 9 5 5 1004.0 1002.6 0.0

Other Formats:

Comma delimited format used in spreadsheet applications
http://www.bom.gov.au/fwo/IDQ60801/IDQ60801.94342.axf

JavaScript Object Notation format (JSON) in row-major order
http://www.bom.gov.au/fwo/IDQ60801/IDQ60801.94342.json